createdAt,value
2024-05-09T00:00:35.809Z,94.23
2024-05-09T00:03:10.487Z,93.76
2024-05-09T00:05:38.593Z,93.87
2024-05-09T00:08:05.490Z,93.19
2024-05-09T00:10:36.719Z,92.60
2024-05-09T00:13:05.870Z,93.19
2024-05-09T00:15:33.477Z,93.54
2024-05-09T00:18:00.590Z,93.99
2024-05-09T00:20:35.304Z,93.81
2024-05-09T00:23:07.379Z,93.62
2024-05-09T00:25:34.595Z,93.46
2024-05-09T00:28:01.216Z,93.50
2024-05-09T00:30:33.788Z,92.70
2024-05-09T00:33:03.779Z,93.18
2024-05-09T00:35:30.919Z,94.58
2024-05-09T00:37:57.672Z,94.69
2024-05-09T00:40:34.753Z,94.78
2024-05-09T00:43:05.867Z,94.29
2024-05-09T00:45:33.513Z,94.08
2024-05-09T00:48:02.606Z,93.65
2024-05-09T00:50:35.737Z,93.94
2024-05-09T00:53:05.064Z,94.06
2024-05-09T00:55:31.886Z,94.17
2024-05-09T00:57:58.506Z,94.04
2024-05-09T01:00:31.668Z,94.54
2024-05-09T01:03:05.348Z,94.63
2024-05-09T01:05:32.564Z,94.49
2024-05-09T01:07:59.344Z,95.20
2024-05-09T01:10:33.520Z,95.21
2024-05-09T01:13:01.979Z,95.37
2024-05-09T01:15:28.595Z,95.49
2024-05-09T01:17:56.669Z,95.97
2024-05-09T01:20:32.109Z,95.98
2024-05-09T01:23:07.265Z,95.80
2024-05-09T01:25:34.017Z,95.36
2024-05-09T01:28:00.722Z,95.79
2024-05-09T01:30:33.970Z,95.37
2024-05-09T01:33:03.216Z,95.24
2024-05-09T01:35:30.022Z,95.40
2024-05-09T01:37:56.706Z,95.01
2024-05-09T01:40:33.296Z,94.78
2024-05-09T01:43:04.354Z,95.08
2024-05-09T01:45:30.938Z,94.51
2024-05-09T01:47:57.566Z,94.91
2024-05-09T01:50:35.828Z,95.09
2024-05-09T01:53:05.990Z,95.35
2024-05-09T01:55:32.582Z,94.91
2024-05-09T01:57:59.166Z,95.25
2024-05-09T02:00:36.889Z,94.97
2024-05-09T02:03:13.685Z,94.22
2024-05-09T02:05:43.162Z,94.44
2024-05-09T02:08:14.989Z,94.57
2024-05-09T02:10:41.797Z,94.48
2024-05-09T02:13:08.458Z,94.58
2024-05-09T02:15:35.254Z,95.25
2024-05-09T02:18:02.058Z,95.03
2024-05-09T02:20:35.199Z,94.52
2024-05-09T02:23:04.267Z,95.08
2024-05-09T02:25:31.429Z,95.17
2024-05-09T02:27:57.976Z,95.06
2024-05-09T02:30:31.161Z,94.79
2024-05-09T02:33:05.951Z,94.98
2024-05-09T02:35:32.995Z,94.73
2024-05-09T02:37:59.817Z,94.63
2024-05-09T02:40:35.485Z,94.08
2024-05-09T02:43:04.756Z,94.09
2024-05-09T02:45:31.315Z,94.09
2024-05-09T02:47:58.023Z,94.39
2024-05-09T02:50:33.504Z,94.35
2024-05-09T02:53:04.845Z,94.26
2024-05-09T02:55:31.416Z,94.09
2024-05-09T02:57:57.942Z,94.19
2024-05-09T03:00:34.167Z,94.85
2024-05-09T03:03:05.902Z,94.58
2024-05-09T03:05:32.645Z,94.75
2024-05-09T03:07:59.291Z,95.03
2024-05-09T03:10:28.947Z,94.63
2024-05-09T03:13:05.064Z,95.08
2024-05-09T03:15:33.118Z,94.34
2024-05-09T03:18:01.164Z,94.95
2024-05-09T03:20:33.526Z,94.51
2024-05-09T03:23:02.206Z,94.62
2024-05-09T03:25:29.081Z,94.75
2024-05-09T03:27:55.804Z,94.18
2024-05-09T03:30:31.263Z,94.73
2024-05-09T03:33:09.592Z,95.31
2024-05-09T03:35:36.411Z,95.49
2024-05-09T03:38:03.223Z,94.98
2024-05-09T03:40:31.100Z,95.15
2024-05-09T03:42:58.817Z,95.19
2024-05-09T03:45:25.711Z,94.88
2024-05-09T03:47:53.002Z,94.52
2024-05-09T03:50:29.536Z,94.35
2024-05-09T03:53:00.828Z,94.84
2024-05-09T03:55:27.838Z,94.68
2024-05-09T03:57:54.616Z,94.21
2024-05-09T04:00:30.567Z,94.16
2024-05-09T04:03:03.792Z,93.58
2024-05-09T04:05:31.432Z,93.73
2024-05-09T04:07:58.453Z,93.69
2024-05-09T04:10:32.416Z,93.75
2024-05-09T04:13:00.611Z,93.66
2024-05-09T04:15:27.329Z,94.30
2024-05-09T04:17:54.131Z,94.24
2024-05-09T04:20:32.832Z,94.37
2024-05-09T04:23:05.418Z,94.47
2024-05-09T04:25:32.554Z,93.74
2024-05-09T04:27:59.070Z,93.46
2024-05-09T04:30:34.669Z,93.01
2024-05-09T04:33:14.828Z,93.67
2024-05-09T04:35:42.836Z,92.38
2024-05-09T04:38:10.120Z,92.33
2024-05-09T04:40:37.684Z,92.09
2024-05-09T04:43:05.515Z,93.19
2024-05-09T04:45:32.433Z,92.77
2024-05-09T04:47:59.533Z,91.80
2024-05-09T04:50:35.423Z,92.58
2024-05-09T04:53:05.837Z,91.87
2024-05-09T04:55:33.167Z,91.45
2024-05-09T04:57:59.800Z,91.42
2024-05-09T05:00:34.641Z,90.90
2024-05-09T05:03:10.075Z,90.23
2024-05-09T05:05:41.140Z,89.05
2024-05-09T05:08:26.152Z,88.92
2024-05-09T05:10:52.968Z,89.17
2024-05-09T05:13:21.094Z,87.87
2024-05-09T05:15:49.448Z,88.13
2024-05-09T05:18:16.517Z,87.57
2024-05-09T05:20:43.524Z,87.04
2024-05-09T05:23:11.357Z,86.26
2024-05-09T05:25:38.276Z,86.31
2024-05-09T05:28:05.308Z,85.90
2024-05-09T05:30:34.727Z,80.85
2024-05-09T05:33:02.088Z,78.70
2024-05-09T05:35:28.948Z,74.86
2024-05-09T05:37:55.688Z,75.18
2024-05-09T05:40:28.668Z,74.88
2024-05-09T05:43:02.858Z,73.73
2024-05-09T05:45:29.403Z,71.56
2024-05-09T05:47:56.307Z,73.30
2024-05-09T05:50:28.090Z,74.35
2024-05-09T05:53:02.198Z,73.94
2024-05-09T05:55:28.987Z,73.00
2024-05-09T05:57:55.583Z,73.27
2024-05-09T06:00:29.720Z,71.00
2024-05-09T06:03:04.058Z,72.32
2024-05-09T06:05:30.751Z,71.79
2024-05-09T06:07:57.467Z,70.98
2024-05-09T06:10:29.661Z,71.43
2024-05-09T06:13:03.154Z,71.33
2024-05-09T06:15:29.676Z,71.21
2024-05-09T06:17:56.278Z,70.50
2024-05-09T06:20:31.771Z,70.57
2024-05-09T06:23:03.434Z,70.78
2024-05-09T06:25:30.255Z,70.98
2024-05-09T06:27:56.943Z,70.11
2024-05-09T06:30:30.410Z,69.02
2024-05-09T06:33:04.944Z,70.69
2024-05-09T06:35:31.885Z,69.66
2024-05-09T06:37:58.652Z,68.83
2024-05-09T06:40:29.854Z,67.41
2024-05-09T06:43:02.895Z,65.65
2024-05-09T06:45:29.520Z,66.80
2024-05-09T06:47:56.331Z,64.84
2024-05-09T06:50:28.259Z,64.48
2024-05-09T06:52:58.284Z,64.88
2024-05-09T06:55:25.076Z,63.07
2024-05-09T06:57:51.595Z,63.25
2024-05-09T07:00:26.877Z,61.72
2024-05-09T07:02:59.061Z,61.69
2024-05-09T07:05:26.838Z,61.75
2024-05-09T07:07:53.625Z,61.81
2024-05-09T07:10:28.484Z,61.62
2024-05-09T07:12:59.427Z,59.27
2024-05-09T07:15:25.976Z,60.58
2024-05-09T07:17:52.771Z,56.69
2024-05-09T07:20:27.485Z,55.46
2024-05-09T07:23:00.677Z,56.00
2024-05-09T07:25:27.270Z,51.88
2024-05-09T07:27:53.780Z,50.49
2024-05-09T07:30:27.638Z,50.12
2024-05-09T07:33:00.255Z,53.05
2024-05-09T07:35:27.512Z,50.72
2024-05-09T07:37:54.417Z,50.23
2024-05-09T07:40:31.723Z,49.05
2024-05-09T07:43:06.834Z,50.76
2024-05-09T07:52:23.428Z,47.49
2024-05-09T07:53:38.594Z,48.57
2024-05-09T07:56:07.511Z,48.16
2024-05-09T07:58:34.628Z,46.17
2024-05-09T08:01:02.892Z,44.96
2024-05-09T08:03:29.744Z,46.41
2024-05-09T08:05:56.494Z,44.39
2024-05-09T08:08:23.344Z,42.35
2024-05-09T08:10:50.450Z,42.68
2024-05-09T08:13:17.232Z,40.79
2024-05-09T08:15:43.981Z,40.35
2024-05-09T08:18:10.672Z,42.84
2024-05-09T08:20:41.383Z,39.53
2024-05-09T08:23:07.984Z,41.54
2024-05-09T08:25:34.630Z,40.89
2024-05-09T08:28:01.502Z,40.44
2024-05-09T08:30:33.785Z,40.96
2024-05-09T08:33:04.272Z,40.53
2024-05-09T08:35:32.007Z,40.09
2024-05-09T08:37:58.786Z,43.89
2024-05-09T08:40:33.316Z,42.02
2024-05-09T08:43:02.706Z,42.16
2024-05-09T08:45:29.808Z,41.85
2024-05-09T08:47:56.631Z,43.07
2024-05-09T08:50:32.210Z,46.45
2024-05-09T08:53:05.546Z,47.60
2024-05-09T08:55:32.551Z,44.01
2024-05-09T08:58:00.930Z,44.94
2024-05-09T09:00:35.844Z,42.49
2024-05-09T09:03:05.870Z,42.02
2024-05-09T09:05:34.746Z,42.11
2024-05-09T09:08:04.505Z,42.38
2024-05-09T09:10:32.525Z,43.71
2024-05-09T09:13:05.237Z,41.31
2024-05-09T09:15:32.366Z,43.00
2024-05-09T09:23:12.090Z,42.15
2024-05-09T09:25:42.052Z,41.92
2024-05-09T09:28:09.270Z,44.61
2024-05-09T09:30:43.014Z,44.43
2024-05-09T09:33:10.444Z,43.61
2024-05-09T09:35:39.254Z,43.55
2024-05-09T09:38:07.120Z,40.85
2024-05-09T09:40:37.267Z,39.59
2024-05-09T09:43:12.902Z,39.91
2024-05-09T09:45:40.096Z,41.06
2024-05-09T09:48:06.978Z,41.93
2024-05-09T09:50:35.304Z,42.77
2024-05-09T09:53:03.732Z,44.19
2024-05-09T09:55:31.527Z,42.90
2024-05-09T09:57:58.203Z,43.39
2024-05-09T10:00:32.370Z,41.04
2024-05-09T10:03:00.594Z,43.38
2024-05-09T10:05:28.303Z,45.07
2024-05-09T10:07:55.593Z,45.48
2024-05-09T10:10:32.041Z,42.47
2024-05-09T10:13:00.215Z,41.53
2024-05-09T10:15:27.116Z,40.16
2024-05-09T10:17:53.822Z,44.09
2024-05-09T10:20:24.734Z,40.27
2024-05-09T10:22:54.369Z,39.76
2024-05-09T10:25:21.130Z,39.29
2024-05-09T10:27:54.718Z,40.72
2024-05-09T10:32:56.766Z,37.69
2024-05-09T10:35:25.378Z,40.83
2024-05-09T10:37:52.963Z,42.79
2024-05-09T10:40:26.381Z,38.18
2024-05-09T10:43:01.960Z,37.60
2024-05-09T10:45:30.257Z,39.01
2024-05-09T10:47:56.972Z,37.64
2024-05-09T10:50:28.558Z,40.88
2024-05-09T10:52:58.691Z,40.67
2024-05-09T10:55:25.577Z,40.84
2024-05-09T10:57:52.218Z,40.45
2024-05-09T11:00:27.396Z,42.17
2024-05-09T11:02:59.791Z,40.64
2024-05-09T11:05:27.024Z,44.09
2024-05-09T11:07:53.850Z,42.39
2024-05-09T11:10:27.426Z,39.49
2024-05-09T11:12:58.517Z,39.94
2024-05-09T11:15:26.072Z,40.16
2024-05-09T11:17:52.814Z,41.63
2024-05-09T11:20:26.841Z,41.44
2024-05-09T11:22:57.741Z,42.84
2024-05-09T11:25:24.411Z,42.08
2024-05-09T11:27:51.160Z,42.34
2024-05-09T11:30:26.786Z,44.01
2024-05-09T11:32:58.755Z,39.37
2024-05-09T11:35:26.648Z,39.66
2024-05-09T11:37:53.263Z,41.17
2024-05-09T11:40:25.528Z,38.61
2024-05-09T11:42:58.655Z,39.10
2024-05-09T11:45:25.458Z,39.36
2024-05-09T11:47:52.431Z,37.79
2024-05-09T11:50:27.103Z,42.69
2024-05-09T11:52:57.055Z,41.94
2024-05-09T11:55:27.736Z,41.74
2024-05-09T11:57:55.599Z,41.89
2024-05-09T12:00:29.691Z,40.19
2024-05-09T12:03:05.346Z,40.73
2024-05-09T12:05:33.145Z,40.03
2024-05-09T12:08:00.718Z,37.89
2024-05-09T12:10:33.140Z,38.04
2024-05-09T12:13:02.681Z,35.56
2024-05-09T12:15:30.064Z,36.53
2024-05-09T12:17:59.071Z,39.99
2024-05-09T12:20:35.468Z,40.42
2024-05-09T12:23:05.212Z,38.37
2024-05-09T12:25:31.719Z,40.70
2024-05-09T12:27:58.451Z,39.50
2024-05-09T12:30:33.241Z,38.79
2024-05-09T12:33:05.011Z,40.89
2024-05-09T12:35:31.974Z,40.39
2024-05-09T12:37:58.698Z,40.31
2024-05-09T12:40:34.307Z,37.84
2024-05-09T12:43:04.715Z,36.22
2024-05-09T12:45:31.576Z,37.83
2024-05-09T12:47:58.497Z,34.83
2024-05-09T12:50:31.705Z,37.54
2024-05-09T12:53:00.497Z,35.78
2024-05-09T12:55:28.346Z,39.29
2024-05-09T12:57:56.512Z,40.14
2024-05-09T13:00:28.247Z,41.14
2024-05-09T13:03:00.740Z,40.73
2024-05-09T13:05:28.149Z,39.64
2024-05-09T13:07:56.794Z,38.94
2024-05-09T13:10:30.772Z,38.97
2024-05-09T13:12:59.877Z,41.64
2024-05-09T13:15:26.974Z,42.06
2024-05-09T13:17:55.342Z,40.27
2024-05-09T13:20:29.537Z,38.90
2024-05-09T13:23:01.460Z,40.85
2024-05-09T13:25:28.048Z,38.72
2024-05-09T13:27:54.932Z,37.64
2024-05-09T13:30:29.298Z,38.35
2024-05-09T13:33:04.843Z,34.86
2024-05-09T13:35:32.280Z,35.98
2024-05-09T13:37:58.980Z,38.67
2024-05-09T13:40:32.683Z,40.14
2024-05-09T13:43:02.055Z,34.81
2024-05-09T13:45:28.985Z,32.44
2024-05-09T13:47:55.930Z,33.73
2024-05-09T13:50:31.118Z,35.38
2024-05-09T13:53:01.728Z,35.47
2024-05-09T13:55:28.395Z,35.36
2024-05-09T13:57:55.561Z,37.68
2024-05-09T14:00:37.628Z,37.19
2024-05-09T14:03:09.205Z,38.64
2024-05-09T14:05:36.162Z,40.42
2024-05-09T14:08:03.242Z,43.50
2024-05-09T14:10:31.895Z,42.20
2024-05-09T14:12:59.331Z,43.57
2024-05-09T14:15:26.021Z,43.78
2024-05-09T14:17:52.879Z,40.66
2024-05-09T14:20:28.568Z,39.86
2024-05-09T14:22:58.457Z,43.29
2024-05-09T14:25:26.882Z,43.15
2024-05-09T14:27:54.096Z,40.09
2024-05-09T14:30:30.144Z,37.90
2024-05-09T14:33:02.835Z,37.26
2024-05-09T14:35:29.732Z,31.88
2024-05-09T14:37:56.455Z,32.11
2024-05-09T14:40:35.908Z,31.23
2024-05-09T14:43:07.926Z,31.42
2024-05-09T14:45:34.899Z,29.18
2024-05-09T14:48:02.814Z,29.34
2024-05-09T14:50:35.833Z,29.10
2024-05-09T14:53:06.502Z,28.93
2024-05-09T14:55:36.589Z,29.39
2024-05-09T14:58:05.851Z,26.56
2024-05-09T15:00:35.979Z,29.48
2024-05-09T15:03:04.312Z,34.25
2024-05-09T15:05:31.191Z,36.41
2024-05-09T15:07:57.955Z,38.65
2024-05-09T15:10:33.620Z,39.18
2024-05-09T15:13:02.669Z,38.58
2024-05-09T15:15:29.442Z,39.48
2024-05-09T15:17:56.359Z,40.75
2024-05-09T15:20:31.117Z,39.64
2024-05-09T15:23:02.052Z,41.38
2024-05-09T15:25:28.945Z,40.39
2024-05-09T15:27:55.853Z,40.47
2024-05-09T15:32:52.423Z,33.58
2024-05-09T15:35:19.125Z,31.30
2024-05-09T15:37:48.186Z,30.11
2024-05-09T15:40:21.568Z,29.77
2024-05-09T15:42:53.418Z,28.70
2024-05-09T15:45:20.227Z,29.89
2024-05-09T15:47:47.071Z,27.26
2024-05-09T15:53:27.519Z,34.55
2024-05-09T15:55:57.397Z,36.96
2024-05-09T15:58:35.374Z,36.49
2024-05-09T16:01:09.703Z,38.71
2024-05-09T16:03:42.129Z,39.24
2024-05-09T16:06:19.136Z,38.20
2024-05-09T16:08:53.135Z,40.37
2024-05-09T16:21:53.401Z,42.24
2024-05-09T16:24:20.065Z,43.25
2024-05-09T16:26:46.700Z,41.82
2024-05-09T16:29:13.609Z,39.23
2024-05-09T16:31:40.476Z,39.21
2024-05-09T16:34:07.805Z,39.52
2024-05-09T16:36:34.605Z,38.46
2024-05-09T16:39:01.193Z,39.24
2024-05-09T16:41:28.943Z,40.04
2024-05-09T16:43:57.854Z,39.55
2024-05-09T16:46:25.005Z,38.32
2024-05-09T16:48:52.035Z,38.17
2024-05-09T16:51:18.792Z,37.58
2024-05-09T16:53:45.639Z,36.28
2024-05-09T16:56:12.786Z,36.03
2024-05-09T16:58:39.729Z,36.27
2024-05-09T17:01:06.613Z,35.04
2024-05-09T17:03:34.062Z,34.48
2024-05-09T17:06:03.504Z,37.06
2024-05-09T17:08:30.065Z,37.28
2024-05-09T17:10:56.956Z,38.44
2024-05-09T17:13:23.835Z,38.37
2024-05-09T17:15:50.662Z,36.09
2024-05-09T17:18:17.898Z,36.12
2024-05-09T17:20:44.825Z,37.78
2024-05-09T17:23:14.732Z,39.01
2024-05-09T17:25:42.014Z,38.33
2024-05-09T17:28:09.520Z,38.98
2024-05-09T17:30:38.610Z,39.11
2024-05-09T17:33:07.993Z,39.44
2024-05-09T17:35:35.662Z,37.63
2024-05-09T17:38:02.506Z,39.13
2024-05-09T17:40:33.752Z,39.14
2024-05-09T17:43:04.489Z,39.46
2024-05-09T17:45:32.228Z,39.09
2024-05-09T17:48:00.014Z,40.32
2024-05-09T17:50:36.080Z,41.45
2024-05-09T17:56:02.767Z,43.50
2024-05-09T17:58:29.698Z,44.55
2024-05-09T18:00:56.522Z,43.97
2024-05-09T18:03:23.498Z,45.44
2024-05-09T18:05:50.559Z,45.02
2024-05-09T18:08:17.401Z,45.19
2024-05-09T18:10:44.628Z,45.33
2024-05-09T18:13:12.296Z,46.16
2024-05-09T18:15:39.623Z,46.81
2024-05-09T18:18:07.319Z,48.04
2024-05-09T18:20:41.968Z,47.88
2024-05-09T18:23:13.232Z,47.19
2024-05-09T18:25:40.513Z,48.14
2024-05-09T18:28:07.852Z,47.60
2024-05-09T18:30:36.529Z,47.03
2024-05-09T18:33:06.079Z,47.95
2024-05-09T18:35:34.139Z,48.92
2024-05-09T18:38:00.865Z,49.70
2024-05-09T18:40:33.160Z,50.28
2024-05-09T18:43:03.511Z,50.64
2024-05-09T18:45:30.645Z,52.40
2024-05-09T18:47:57.620Z,52.63
2024-05-09T18:50:32.401Z,52.96
2024-05-09T18:53:05.066Z,53.34
2024-05-09T18:55:31.792Z,53.25
2024-05-09T18:57:58.710Z,52.99
2024-05-09T19:00:33.543Z,51.02
2024-05-09T19:03:06.890Z,51.99
2024-05-09T19:05:35.552Z,51.82
2024-05-09T19:08:21.722Z,53.84
2024-05-09T19:10:50.052Z,53.69
2024-05-09T19:13:16.919Z,54.47
2024-05-09T19:15:44.310Z,55.11
2024-05-09T19:18:12.589Z,55.89
2024-05-09T19:20:39.937Z,56.18
2024-05-09T19:23:07.303Z,57.53
2024-05-09T19:25:34.964Z,58.00
2024-05-09T19:28:03.005Z,58.42
2024-05-09T19:30:37.856Z,59.05
2024-05-09T19:33:11.421Z,59.56
2024-05-09T19:35:39.358Z,62.51
2024-05-09T19:38:06.379Z,62.68
2024-05-09T19:40:34.683Z,63.92
2024-05-09T19:43:06.664Z,64.52
2024-05-09T19:45:34.833Z,64.62
2024-05-09T19:48:02.737Z,64.09
2024-05-09T19:50:37.498Z,64.33
2024-05-09T19:53:10.253Z,65.21
2024-05-09T19:55:37.593Z,65.61
2024-05-09T19:58:05.540Z,66.27
2024-05-09T20:00:39.005Z,66.74
2024-05-09T20:03:08.205Z,67.08
2024-05-09T20:05:35.612Z,67.28
2024-05-09T20:08:02.770Z,67.75
2024-05-09T20:10:32.749Z,68.69
2024-05-09T20:13:01.880Z,69.35
2024-05-09T20:15:28.778Z,68.80
2024-05-09T20:17:55.867Z,69.10
2024-05-09T20:20:32.607Z,69.86
2024-05-09T20:23:04.637Z,70.44
2024-05-09T20:25:31.279Z,70.16
2024-05-09T20:27:57.974Z,70.76
2024-05-09T20:30:32.063Z,71.73
2024-05-09T20:33:02.274Z,72.12
2024-05-09T20:35:31.843Z,72.06
2024-05-09T20:37:58.941Z,72.34
2024-05-09T20:40:31.771Z,72.54
2024-05-09T20:43:02.178Z,73.13
2024-05-09T20:45:28.857Z,73.88
2024-05-09T20:47:56.031Z,74.01
2024-05-09T20:50:29.271Z,74.80
2024-05-09T20:53:03.557Z,74.55
2024-05-09T20:55:30.516Z,74.75
2024-05-09T20:57:57.659Z,75.40
2024-05-09T21:00:33.813Z,74.77
2024-05-09T21:03:05.731Z,75.83
2024-05-09T21:05:32.653Z,75.68
2024-05-09T21:07:59.409Z,76.40
2024-05-09T21:10:27.271Z,76.15
2024-05-09T21:12:56.503Z,76.84
2024-05-09T21:15:23.184Z,76.73
2024-05-09T21:17:49.900Z,75.46
2024-05-09T21:20:20.631Z,75.77
2024-05-09T21:22:50.907Z,77.17
2024-05-09T21:25:17.525Z,78.17
2024-05-09T21:27:44.250Z,78.16
2024-05-09T21:30:18.615Z,78.37
2024-05-09T21:32:57.122Z,78.73
2024-05-09T21:35:23.789Z,79.44
2024-05-09T21:37:50.345Z,78.79
2024-05-09T21:40:26.989Z,80.13
2024-05-09T21:43:00.214Z,79.81
2024-05-09T21:45:26.921Z,79.79
2024-05-09T21:47:53.710Z,80.38
2024-05-09T21:50:27.555Z,80.51
2024-05-09T21:52:58.877Z,79.37
2024-05-09T21:55:25.463Z,79.21
2024-05-09T21:57:52.085Z,78.95
2024-05-09T22:00:28.614Z,78.83
2024-05-09T22:03:01.866Z,78.25
2024-05-09T22:05:28.694Z,78.73
2024-05-09T22:07:55.276Z,79.73
2024-05-09T22:10:26.545Z,80.27
2024-05-09T22:12:59.270Z,80.12
2024-05-09T22:15:25.932Z,79.73
2024-05-09T22:17:52.676Z,80.23
2024-05-09T22:20:28.614Z,80.14
2024-05-09T22:23:01.111Z,80.90
2024-05-09T22:25:30.228Z,80.34
2024-05-09T22:27:57.315Z,80.54
2024-05-09T22:30:31.817Z,81.17
2024-05-09T22:33:02.993Z,81.29
2024-05-09T22:35:29.548Z,81.23
2024-05-09T22:37:56.099Z,81.14
2024-05-09T22:40:32.165Z,81.06
2024-05-09T22:43:06.665Z,81.35
2024-05-09T22:45:33.322Z,82.20
2024-05-09T22:48:00.144Z,82.41
2024-05-09T22:50:32.385Z,81.68
2024-05-09T22:52:59.897Z,81.57
2024-05-09T22:55:26.405Z,82.51
2024-05-09T22:57:53.055Z,83.15
2024-05-09T23:00:29.077Z,83.39
2024-05-09T23:02:59.325Z,83.59
2024-05-09T23:05:25.994Z,83.47
2024-05-09T23:07:52.591Z,83.36
2024-05-09T23:10:27.327Z,83.38
2024-05-09T23:12:58.812Z,83.04
2024-05-09T23:15:25.423Z,82.85
2024-05-09T23:17:52.218Z,83.05
2024-05-09T23:20:29.658Z,82.88
2024-05-09T23:23:03.156Z,82.30
2024-05-09T23:25:29.661Z,82.50
2024-05-09T23:27:56.243Z,82.43
2024-05-09T23:30:33.038Z,83.21
2024-05-09T23:33:04.611Z,84.25
2024-05-09T23:35:31.239Z,84.25
2024-05-09T23:37:58.942Z,83.35
2024-05-09T23:40:36.842Z,83.14
2024-05-09T23:43:06.713Z,83.84
2024-05-09T23:45:33.606Z,83.73
2024-05-09T23:48:00.519Z,83.68
2024-05-09T23:50:34.252Z,84.42
2024-05-09T23:53:04.034Z,84.93
2024-05-09T23:55:31.558Z,84.75
2024-05-09T23:57:58.519Z,85.21
